createdAt,value
2019-06-10T00:00:57.297Z,0.00
2019-06-10T00:01:57.424Z,0.00
2019-06-10T00:02:57.502Z,0.00
2019-06-10T00:03:57.724Z,0.00
2019-06-10T00:04:56.187Z,0.00
2019-06-10T00:05:56.096Z,0.00
2019-06-10T00:06:56.013Z,0.00
2019-06-10T00:07:55.930Z,0.00
2019-06-10T00:08:56.062Z,0.00
2019-06-10T00:09:56.176Z,0.00
2019-06-10T00:10:56.209Z,0.00
2019-06-10T00:11:56.299Z,0.00
2019-06-10T00:12:55.544Z,0.00
2019-06-10T00:13:56.537Z,0.00
2019-06-10T00:14:56.627Z,0.00
2019-06-10T00:15:55.271Z,0.00
2019-06-10T00:16:55.188Z,0.00
2019-06-10T00:18:16.192Z,0.00
2019-06-10T00:18:54.997Z,0.00
2019-06-10T00:19:54.911Z,0.00
2019-06-10T00:20:54.839Z,0.00
2019-06-10T00:21:54.740Z,0.00
2019-06-10T00:22:54.664Z,0.00
2019-06-10T00:23:54.571Z,0.00
2019-06-10T00:24:54.497Z,0.00
2019-06-10T00:25:54.411Z,0.00
2019-06-10T00:26:54.316Z,0.00
2019-06-10T00:27:54.247Z,0.00
2019-06-10T00:28:54.151Z,0.00
2019-06-10T00:29:54.094Z,0.00
2019-06-10T00:30:53.983Z,0.00
2019-06-10T00:31:53.889Z,0.00
2019-06-10T00:32:53.816Z,0.00
2019-06-10T00:33:53.734Z,0.00
2019-06-10T00:34:53.641Z,0.00
2019-06-10T00:35:53.567Z,0.00
2019-06-10T00:36:53.461Z,0.00
2019-06-10T00:37:53.394Z,0.00
2019-06-10T00:38:53.301Z,0.00
2019-06-10T00:39:53.218Z,0.00
2019-06-10T00:40:53.133Z,0.00
2019-06-10T00:41:53.041Z,0.00
2019-06-10T00:42:52.953Z,0.00
2019-06-10T00:43:52.895Z,0.00
2019-06-10T00:44:52.783Z,0.00
2019-06-10T00:45:52.702Z,0.00
2019-06-10T00:46:52.623Z,0.00
2019-06-10T00:48:07.605Z,0.00
2019-06-10T00:48:52.458Z,0.00
2019-06-10T00:49:52.351Z,0.00
2019-06-10T00:50:52.280Z,0.00
2019-06-10T00:51:52.177Z,0.00
2019-06-10T00:52:52.101Z,0.00
2019-06-10T00:53:52.009Z,0.00
2019-06-10T00:54:52.041Z,0.00
2019-06-10T00:55:51.851Z,0.00
2019-06-10T00:56:52.031Z,0.00
2019-06-10T00:57:51.667Z,0.00
2019-06-10T00:58:51.603Z,0.00
2019-06-10T00:59:51.521Z,0.00
2019-06-10T01:00:51.807Z,0.00
2019-06-10T01:01:51.336Z,0.00
2019-06-10T01:02:51.811Z,0.00
2019-06-10T01:03:51.154Z,0.00
2019-06-10T01:04:51.438Z,0.00
2019-06-10T01:05:51.062Z,0.00
2019-06-10T01:06:51.542Z,0.00
2019-06-10T01:07:50.954Z,0.00
2019-06-10T01:08:51.222Z,0.00
2019-06-10T01:09:51.734Z,0.00
2019-06-10T01:10:52.246Z,0.00
2019-06-10T01:11:51.898Z,0.00
2019-06-10T01:12:51.335Z,0.00
2019-06-10T01:13:50.806Z,0.00
2019-06-10T01:14:51.656Z,0.00
2019-06-10T01:15:51.147Z,0.00
2019-06-10T01:16:50.645Z,0.00
2019-06-10T01:17:51.101Z,0.00
2019-06-10T01:18:53.195Z,0.00
2019-06-10T01:19:50.894Z,0.00
2019-06-10T01:20:51.756Z,0.00
2019-06-10T01:21:51.210Z,0.00
2019-06-10T01:22:51.551Z,0.00
2019-06-10T01:23:51.042Z,0.00
2019-06-10T01:24:51.070Z,0.00
2019-06-10T01:25:51.065Z,0.00
2019-06-10T01:26:50.548Z,0.00
2019-06-10T01:27:51.363Z,0.00
2019-06-10T01:28:51.447Z,0.00
2019-06-10T01:29:51.033Z,0.00
2019-06-10T01:30:48.898Z,0.00
2019-06-10T01:31:51.052Z,0.00
2019-06-10T01:32:50.673Z,0.00
2019-06-10T01:33:48.602Z,0.00
2019-06-10T01:34:50.642Z,0.00
2019-06-10T01:35:48.439Z,0.00
2019-06-10T01:36:50.773Z,0.00
2019-06-10T01:37:48.263Z,0.00
2019-06-10T01:38:48.187Z,0.00
2019-06-10T01:39:48.086Z,0.00
2019-06-10T01:40:48.016Z,0.00
2019-06-10T01:41:47.918Z,0.00
2019-06-10T01:42:47.865Z,0.00
2019-06-10T01:43:47.754Z,0.00
2019-06-10T01:44:47.651Z,0.00
2019-06-10T01:45:47.581Z,0.00
2019-06-10T01:46:47.489Z,0.00
2019-06-10T01:47:47.394Z,0.00
2019-06-10T01:48:48.480Z,0.00
2019-06-10T01:49:47.240Z,0.00
2019-06-10T01:50:47.139Z,0.00
2019-06-10T01:51:47.055Z,0.00
2019-06-10T01:52:47.051Z,0.00
2019-06-10T01:53:46.895Z,0.00
2019-06-10T01:54:46.801Z,0.00
2019-06-10T01:55:46.718Z,0.00
2019-06-10T01:56:46.633Z,0.00
2019-06-10T01:57:46.541Z,0.00
2019-06-10T01:58:46.455Z,0.00
2019-06-10T01:59:46.375Z,0.00
2019-06-10T02:00:46.335Z,0.00
2019-06-10T02:01:46.203Z,0.00
2019-06-10T02:02:46.153Z,0.00
2019-06-10T02:03:46.033Z,0.00
2019-06-10T02:04:45.944Z,0.00
2019-06-10T02:05:45.861Z,0.00
2019-06-10T02:06:45.765Z,0.00
2019-06-10T02:07:45.683Z,0.00
2019-06-10T02:08:45.609Z,0.00
2019-06-10T02:09:45.513Z,0.00
2019-06-10T02:10:45.441Z,0.00
2019-06-10T02:11:45.341Z,0.00
2019-06-10T02:12:45.257Z,0.00
2019-06-10T02:13:45.162Z,0.00
2019-06-10T02:14:45.087Z,0.00
2019-06-10T02:15:44.997Z,0.00
2019-06-10T02:16:44.917Z,0.00
2019-06-10T02:17:44.853Z,0.00
2019-06-10T02:18:56.810Z,0.00
2019-06-10T02:19:44.661Z,0.00
2019-06-10T02:20:44.569Z,0.00
2019-06-10T02:21:44.497Z,0.00
2019-06-10T02:22:44.414Z,0.00
2019-06-10T02:23:44.319Z,0.00
2019-06-10T02:24:44.235Z,0.00
2019-06-10T02:25:44.149Z,0.00
2019-06-10T02:26:44.058Z,0.00
2019-06-10T02:27:43.977Z,0.00
2019-06-10T02:28:43.884Z,0.00
2019-06-10T02:29:43.792Z,0.00
2019-06-10T02:30:50.799Z,4.00
2019-06-10T02:31:43.847Z,4.00
2019-06-10T02:32:43.538Z,0.00
2019-06-10T02:33:43.454Z,0.00
2019-06-10T02:35:01.328Z,4.00
2019-06-10T02:35:48.858Z,4.00
2019-06-10T02:36:44.573Z,0.00
2019-06-10T02:37:44.394Z,4.00
2019-06-10T02:38:44.477Z,4.00
2019-06-10T02:39:43.934Z,8.00
2019-06-10T02:40:43.526Z,4.00
2019-06-10T02:41:44.623Z,4.00
2019-06-10T02:42:43.630Z,8.00
2019-06-10T02:43:44.096Z,4.00
2019-06-10T02:44:44.525Z,8.00
2019-06-10T02:45:44.502Z,8.00
2019-06-10T02:46:43.976Z,12.00
2019-06-10T02:47:44.330Z,8.00
2019-06-10T02:48:43.622Z,12.00
2019-06-10T02:49:55.763Z,12.00
2019-06-10T02:50:44.149Z,16.00
2019-06-10T02:51:43.639Z,12.00
2019-06-10T02:52:44.420Z,16.00
2019-06-10T02:53:43.353Z,16.00
2019-06-10T02:54:43.864Z,16.00
2019-06-10T02:55:43.437Z,20.00
2019-06-10T02:56:44.149Z,20.00
2019-06-10T02:57:44.622Z,24.00
2019-06-10T02:58:44.948Z,24.00
2019-06-10T02:59:43.578Z,28.00
2019-06-10T03:00:48.058Z,28.00
2019-06-10T03:01:43.976Z,28.00
2019-06-10T03:02:44.554Z,32.00
2019-06-10T03:03:45.829Z,36.00
2019-06-10T03:04:43.320Z,36.00
2019-06-10T03:05:45.626Z,40.00
2019-06-10T03:06:44.714Z,40.00
2019-06-10T03:07:44.033Z,44.00
2019-06-10T03:08:43.415Z,44.00
2019-06-10T03:09:42.721Z,48.00
2019-06-10T03:10:44.007Z,48.00
2019-06-10T03:11:40.422Z,48.00
2019-06-10T03:12:42.268Z,52.00
2019-06-10T03:13:42.494Z,56.00
2019-06-10T03:14:42.151Z,60.00
2019-06-10T03:15:39.842Z,64.00
2019-06-10T03:16:42.188Z,64.00
2019-06-10T03:17:39.678Z,64.00
2019-06-10T03:18:39.606Z,68.00
2019-06-10T03:19:47.899Z,72.00
2019-06-10T03:20:39.423Z,80.00
2019-06-10T03:21:39.333Z,80.00
2019-06-10T03:22:39.247Z,88.00
2019-06-10T03:23:39.181Z,96.00
2019-06-10T03:24:39.087Z,96.00
2019-06-10T03:25:39.018Z,104.00
2019-06-10T03:26:38.903Z,116.00
2019-06-10T03:27:38.829Z,124.00
2019-06-10T03:28:38.729Z,136.00
2019-06-10T03:29:38.647Z,148.00
2019-06-10T03:30:49.708Z,156.00
2019-06-10T03:31:43.179Z,164.00
2019-06-10T03:32:42.780Z,176.00
2019-06-10T03:33:41.816Z,180.00
2019-06-10T03:34:45.887Z,188.00
2019-06-10T03:35:38.139Z,192.00
2019-06-10T03:36:38.043Z,200.00
2019-06-10T03:37:37.955Z,204.00
2019-06-10T03:38:37.871Z,212.00
2019-06-10T03:39:37.791Z,220.00
2019-06-10T03:40:37.715Z,228.00
2019-06-10T03:41:37.653Z,232.00
2019-06-10T03:42:37.533Z,240.00
2019-06-10T03:43:37.443Z,244.00
2019-06-10T03:44:37.415Z,244.00
2019-06-10T03:45:37.267Z,244.00
2019-06-10T03:46:37.193Z,240.00
2019-06-10T03:47:37.101Z,236.00
2019-06-10T03:48:37.076Z,236.00
2019-06-10T03:49:49.128Z,240.00
2019-06-10T03:50:36.841Z,244.00
2019-06-10T03:51:36.764Z,252.00
2019-06-10T03:52:36.681Z,260.00
2019-06-10T03:53:36.598Z,268.00
2019-06-10T03:54:36.525Z,276.00
2019-06-10T03:55:36.408Z,284.00
2019-06-10T03:56:36.328Z,288.00
2019-06-10T03:57:36.241Z,296.00
2019-06-10T03:58:36.172Z,296.00
2019-06-10T03:59:36.084Z,304.00
2019-06-10T04:00:36.999Z,304.00
2019-06-10T04:01:35.915Z,308.00
2019-06-10T04:02:35.880Z,312.00
2019-06-10T04:03:35.830Z,320.00
2019-06-10T04:04:35.645Z,324.00
2019-06-10T04:05:35.565Z,328.00
2019-06-10T04:06:35.492Z,336.00
2019-06-10T04:07:35.407Z,344.00
2019-06-10T04:08:35.315Z,340.00
2019-06-10T04:09:35.223Z,336.00
2019-06-10T04:10:35.125Z,336.00
2019-06-10T04:11:35.717Z,332.00
2019-06-10T04:12:34.956Z,320.00
2019-06-10T04:13:34.879Z,304.00
2019-06-10T04:14:34.804Z,288.00
2019-06-10T04:15:34.701Z,268.00
2019-06-10T04:16:34.623Z,248.00
2019-06-10T04:17:34.532Z,232.00
2019-06-10T04:18:34.444Z,216.00
2019-06-10T04:19:34.360Z,200.00
2019-06-10T04:20:34.286Z,192.00
2019-06-10T04:21:34.187Z,184.00
2019-06-10T04:22:34.101Z,176.00
2019-06-10T04:23:34.015Z,176.00
2019-06-10T04:24:33.934Z,176.00
2019-06-10T04:25:33.846Z,180.00
2019-06-10T04:26:33.766Z,176.00
2019-06-10T04:27:33.668Z,180.00
2019-06-10T04:28:33.872Z,184.00
2019-06-10T04:29:33.503Z,184.00
2019-06-10T04:30:33.414Z,188.00
2019-06-10T04:31:33.338Z,188.00
2019-06-10T04:32:33.240Z,192.00
2019-06-10T04:33:33.160Z,192.00
2019-06-10T04:34:33.467Z,200.00
2019-06-10T04:35:33.682Z,204.00
2019-06-10T04:36:33.454Z,204.00
2019-06-10T04:37:32.812Z,212.00
2019-06-10T04:38:33.063Z,216.00
2019-06-10T04:39:33.665Z,228.00
2019-06-10T04:40:32.966Z,236.00
2019-06-10T04:41:32.638Z,248.00
2019-06-10T04:42:33.005Z,264.00
2019-06-10T04:43:32.728Z,280.00
2019-06-10T04:44:32.960Z,300.00
2019-06-10T04:45:32.510Z,320.00
2019-06-10T04:46:32.555Z,340.00
2019-06-10T04:47:33.309Z,360.00
2019-06-10T04:48:32.612Z,380.00
2019-06-10T04:49:32.759Z,396.00
2019-06-10T04:50:41.925Z,424.00
2019-06-10T04:51:32.875Z,452.00
2019-06-10T04:52:32.866Z,484.00
2019-06-10T04:53:33.036Z,508.00
2019-06-10T04:54:33.313Z,540.00
2019-06-10T04:55:32.657Z,584.00
2019-06-10T04:56:33.411Z,628.00
2019-06-10T04:57:32.692Z,656.00
2019-06-10T04:58:33.288Z,668.00
2019-06-10T04:59:33.372Z,664.00
2019-06-10T05:00:33.029Z,680.00
2019-06-10T05:01:33.306Z,736.00
2019-06-10T05:02:32.949Z,772.00
2019-06-10T05:03:32.640Z,784.00
2019-06-10T05:04:32.759Z,796.00
2019-06-10T05:05:32.625Z,820.00
2019-06-10T05:06:32.606Z,852.00
2019-06-10T05:07:36.001Z,872.00
2019-06-10T05:08:30.157Z,884.00
2019-06-10T05:09:31.279Z,900.00
2019-06-10T05:10:30.023Z,920.00
2019-06-10T05:11:30.883Z,940.00
2019-06-10T05:12:29.826Z,952.00
2019-06-10T05:13:29.983Z,964.00
2019-06-10T05:14:30.934Z,988.00
2019-06-10T05:15:31.558Z,1008.00
2019-06-10T05:16:32.166Z,1028.00
2019-06-10T05:17:30.964Z,1056.00
2019-06-10T05:18:30.307Z,1080.00
2019-06-10T05:19:30.643Z,1100.00
2019-06-10T05:20:46.856Z,1120.00
2019-06-10T05:21:29.777Z,1152.00
2019-06-10T05:22:30.608Z,1172.00
2019-06-10T05:23:29.936Z,1200.00
2019-06-10T05:24:30.154Z,1228.00
2019-06-10T05:25:28.703Z,1268.00
2019-06-10T05:26:29.242Z,1304.00
2019-06-10T05:27:28.610Z,1348.00
2019-06-10T05:28:28.717Z,1396.00
2019-06-10T05:29:29.550Z,1424.00
2019-06-10T05:30:29.510Z,1444.00
2019-06-10T05:31:28.906Z,1460.00
2019-06-10T05:32:29.032Z,1476.00
2019-06-10T05:33:28.605Z,1488.00
2019-06-10T05:34:28.785Z,1508.00
2019-06-10T05:35:28.480Z,1524.00
2019-06-10T05:36:29.858Z,1540.00
2019-06-10T05:37:28.233Z,1576.00
2019-06-10T05:38:29.104Z,1588.00
2019-06-10T05:39:28.786Z,1604.00
2019-06-10T05:40:27.658Z,1636.00
2019-06-10T05:41:28.943Z,1680.00
2019-06-10T05:42:28.186Z,1744.00
2019-06-10T05:43:27.875Z,1780.00
2019-06-10T05:44:28.471Z,1792.00
2019-06-10T05:45:27.996Z,1784.00
2019-06-10T05:46:28.229Z,1820.00
2019-06-10T05:47:29.224Z,2156.00
2019-06-10T05:48:26.750Z,2372.00
2019-06-10T05:49:27.792Z,2412.00
2019-06-10T05:50:26.810Z,2400.00
2019-06-10T05:51:27.878Z,2408.00
2019-06-10T05:52:27.539Z,2424.00
2019-06-10T05:53:27.655Z,2444.00
2019-06-10T05:54:27.507Z,2460.00
2019-06-10T05:55:27.075Z,2488.00
2019-06-10T05:56:27.166Z,2524.00
2019-06-10T05:57:27.314Z,2556.00
2019-06-10T05:58:26.519Z,2596.00
2019-06-10T05:59:25.891Z,2628.00
2019-06-10T06:00:26.085Z,2660.00
2019-06-10T06:01:25.700Z,2708.00
2019-06-10T06:02:25.800Z,2764.00
2019-06-10T06:03:25.758Z,2800.00
2019-06-10T06:04:26.392Z,2756.00
2019-06-10T06:05:25.987Z,2720.00
2019-06-10T06:06:25.220Z,2632.00
2019-06-10T06:07:25.144Z,2500.00
2019-06-10T06:08:25.155Z,2412.00
2019-06-10T06:09:25.173Z,2316.00
2019-06-10T06:10:25.140Z,2376.00
2019-06-10T06:11:25.252Z,2640.00
2019-06-10T06:12:25.458Z,2688.00
2019-06-10T06:13:25.354Z,2540.00
2019-06-10T06:14:25.477Z,2324.00
2019-06-10T06:15:25.437Z,2216.00
2019-06-10T06:16:25.624Z,2148.00
2019-06-10T06:17:24.302Z,2032.00
2019-06-10T06:18:24.248Z,1980.00
2019-06-10T06:19:24.126Z,2036.00
2019-06-10T06:20:25.067Z,2316.00
2019-06-10T06:21:30.123Z,2112.00
2019-06-10T06:22:23.868Z,2336.00
2019-06-10T06:23:23.781Z,2300.00
2019-06-10T06:24:23.718Z,2336.00
2019-06-10T06:25:24.168Z,2076.00
2019-06-10T06:26:24.003Z,2076.00
2019-06-10T06:27:23.450Z,2508.00
2019-06-10T06:28:23.392Z,2332.00
2019-06-10T06:29:23.286Z,2296.00
2019-06-10T06:30:23.219Z,2164.00
2019-06-10T06:31:23.397Z,2496.00
2019-06-10T06:32:23.587Z,2160.00
2019-06-10T06:33:22.947Z,2160.00
2019-06-10T06:34:22.872Z,2808.00
2019-06-10T06:35:22.791Z,2380.00
2019-06-10T06:36:22.904Z,2708.00
2019-06-10T06:37:23.117Z,2620.00
2019-06-10T06:38:22.559Z,2700.00
2019-06-10T06:39:24.294Z,2308.00
2019-06-10T06:40:23.120Z,2624.00
2019-06-10T06:41:22.771Z,2780.00
2019-06-10T06:42:22.885Z,3180.00
2019-06-10T06:43:22.224Z,3204.00
2019-06-10T06:44:23.398Z,2380.00
2019-06-10T06:45:22.288Z,2932.00
2019-06-10T06:46:23.384Z,2424.00
2019-06-10T06:47:22.685Z,2376.00
2019-06-10T06:48:22.716Z,2256.00
2019-06-10T06:49:23.099Z,2904.00
2019-06-10T06:50:25.421Z,2804.00
2019-06-10T06:51:35.827Z,3360.00
2019-06-10T06:52:38.889Z,3360.00
2019-06-10T06:53:32.294Z,2748.00
2019-06-10T06:54:22.980Z,3312.00
2019-06-10T06:55:23.260Z,2812.00
2019-06-10T06:56:23.020Z,2964.00
2019-06-10T06:57:22.364Z,3352.00
2019-06-10T06:58:23.054Z,3312.00
2019-06-10T06:59:22.394Z,3280.00
2019-06-10T07:00:40.896Z,3040.00
2019-06-10T07:01:23.270Z,3232.00
2019-06-10T07:02:22.574Z,3232.00
2019-06-10T07:03:22.868Z,3240.00
2019-06-10T07:04:20.353Z,3268.00
2019-06-10T07:05:20.271Z,3280.00
2019-06-10T07:06:22.775Z,3284.00
2019-06-10T07:07:22.094Z,3288.00
2019-06-10T07:08:20.010Z,3280.00
2019-06-10T07:09:21.980Z,3284.00
2019-06-10T07:10:19.867Z,3308.00
2019-06-10T07:11:22.271Z,3336.00
2019-06-10T07:12:19.694Z,3372.00
2019-06-10T07:13:22.050Z,3444.00
2019-06-10T07:14:19.523Z,3524.00
2019-06-10T07:15:19.433Z,3588.00
2019-06-10T07:16:19.347Z,3628.00
2019-06-10T07:17:19.269Z,3652.00
2019-06-10T07:18:19.181Z,3668.00
2019-06-10T07:19:19.120Z,3684.00
2019-06-10T07:20:19.025Z,3692.00
2019-06-10T07:21:18.933Z,3692.00
2019-06-10T07:22:18.846Z,3692.00
2019-06-10T07:23:18.765Z,3684.00
2019-06-10T07:24:18.681Z,3676.00
2019-06-10T07:25:18.607Z,3676.00
2019-06-10T07:26:18.516Z,3668.00
2019-06-10T07:27:18.439Z,3660.00
2019-06-10T07:28:18.355Z,3668.00
2019-06-10T07:29:18.271Z,3656.00
2019-06-10T07:30:18.200Z,3652.00
2019-06-10T07:31:23.864Z,3648.00
2019-06-10T07:32:18.034Z,3644.00
2019-06-10T07:33:17.945Z,3648.00
2019-06-10T07:34:17.847Z,3640.00
2019-06-10T07:35:17.768Z,3632.00
2019-06-10T07:36:17.693Z,3256.00
2019-06-10T07:37:17.605Z,3616.00
2019-06-10T07:38:17.542Z,3672.00
2019-06-10T07:39:17.455Z,3724.00
2019-06-10T07:40:17.365Z,3580.00
2019-06-10T07:41:17.284Z,3896.00
2019-06-10T07:42:17.205Z,4052.00
2019-06-10T07:43:17.104Z,3940.00
2019-06-10T07:44:17.024Z,2992.00
2019-06-10T07:45:16.945Z,3580.00
2019-06-10T07:46:16.886Z,3512.00
2019-06-10T07:47:16.802Z,3296.00
2019-06-10T07:48:16.721Z,3364.00
2019-06-10T07:49:16.687Z,3584.00
2019-06-10T07:50:16.533Z,3628.00
2019-06-10T07:51:16.442Z,2792.00
2019-06-10T07:52:19.655Z,2836.00
2019-06-10T07:53:16.285Z,2656.00
2019-06-10T07:54:16.216Z,2692.00
2019-06-10T07:55:16.118Z,2692.00
2019-06-10T07:56:16.055Z,2720.00
2019-06-10T07:57:15.956Z,2736.00
2019-06-10T07:58:15.875Z,2748.00
2019-06-10T07:59:15.783Z,2832.00
2019-06-10T08:00:15.716Z,2892.00
2019-06-10T08:01:15.626Z,2916.00
2019-06-10T08:02:15.561Z,2968.00
2019-06-10T08:03:15.472Z,2936.00
2019-06-10T08:04:15.394Z,2960.00
2019-06-10T08:05:15.299Z,2936.00
2019-06-10T08:06:15.209Z,2928.00
2019-06-10T08:07:15.138Z,2928.00
2019-06-10T08:08:15.043Z,2944.00
2019-06-10T08:09:14.976Z,2976.00
2019-06-10T08:10:14.891Z,3012.00
2019-06-10T08:11:14.794Z,3076.00
2019-06-10T08:12:14.776Z,3128.00
2019-06-10T08:13:14.626Z,3108.00
2019-06-10T08:14:14.546Z,3100.00
2019-06-10T08:15:14.479Z,3088.00
2019-06-10T08:16:14.386Z,3056.00
2019-06-10T08:17:14.314Z,3032.00
2019-06-10T08:18:14.240Z,3152.00
2019-06-10T08:19:29.418Z,3012.00
2019-06-10T08:20:14.055Z,2996.00
2019-06-10T08:21:13.978Z,3068.00
2019-06-10T08:22:29.878Z,3176.00
2019-06-10T08:23:13.814Z,3256.00
2019-06-10T08:24:13.732Z,3304.00
2019-06-10T08:25:13.649Z,3344.00
2019-06-10T08:26:13.578Z,3168.00
2019-06-10T08:27:13.492Z,3144.00
2019-06-10T08:28:13.569Z,3240.00
2019-06-10T08:29:13.321Z,3316.00
2019-06-10T08:30:22.284Z,3556.00
2019-06-10T08:31:13.155Z,3568.00
2019-06-10T08:32:13.279Z,3380.00
2019-06-10T08:33:13.805Z,3176.00
2019-06-10T08:34:13.401Z,3132.00
2019-06-10T08:35:12.954Z,3228.00
2019-06-10T08:36:13.588Z,3376.00
2019-06-10T08:37:13.595Z,3000.00
2019-06-10T08:38:12.573Z,3088.00
2019-06-10T08:39:15.650Z,3112.00
2019-06-10T08:40:12.521Z,3008.00
2019-06-10T08:41:12.440Z,3704.00
2019-06-10T08:42:12.488Z,3452.00
2019-06-10T08:43:13.314Z,3804.00
2019-06-10T08:44:12.516Z,3392.00
2019-06-10T08:45:12.639Z,3860.00
2019-06-10T08:46:13.125Z,4244.00
2019-06-10T08:47:12.395Z,3848.00
2019-06-10T08:48:13.276Z,3136.00
2019-06-10T08:49:12.692Z,3428.00
2019-06-10T08:50:12.948Z,3804.00
2019-06-10T08:51:12.505Z,3296.00
2019-06-10T08:52:12.846Z,3192.00
2019-06-10T08:53:15.513Z,3272.00
2019-06-10T08:54:12.774Z,3260.00
2019-06-10T08:55:12.613Z,3272.00
2019-06-10T08:56:13.170Z,3108.00
2019-06-10T08:57:12.654Z,3852.00
2019-06-10T08:58:12.895Z,3508.00
2019-06-10T08:59:12.433Z,3148.00
2019-06-10T09:00:14.898Z,3276.00
2019-06-10T09:01:13.270Z,3220.00
2019-06-10T09:02:12.470Z,2976.00
2019-06-10T09:03:12.627Z,3200.00
2019-06-10T09:04:10.443Z,3240.00
2019-06-10T09:05:12.567Z,3136.00
2019-06-10T09:06:10.281Z,3236.00
2019-06-10T09:07:12.428Z,3164.00
2019-06-10T09:08:10.114Z,3708.00
2019-06-10T09:09:12.702Z,3496.00
2019-06-10T09:10:09.971Z,2800.00
2019-06-10T09:11:09.862Z,2716.00
2019-06-10T09:12:26.052Z,2748.00
2019-06-10T09:13:09.703Z,3260.00
2019-06-10T09:14:09.645Z,3332.00
2019-06-10T09:15:09.547Z,3276.00
2019-06-10T09:16:15.677Z,3436.00
2019-06-10T09:17:09.392Z,3968.00
2019-06-10T09:18:09.297Z,4092.00
2019-06-10T09:19:09.225Z,3784.00
2019-06-10T09:20:09.143Z,3656.00
2019-06-10T09:21:09.047Z,3740.00
2019-06-10T09:22:08.973Z,3624.00
2019-06-10T09:23:21.560Z,4024.00
2019-06-10T09:24:08.807Z,3916.00
2019-06-10T09:25:08.733Z,3680.00
2019-06-10T09:26:08.653Z,4232.00
2019-06-10T09:27:08.553Z,4464.00
2019-06-10T09:28:08.474Z,4244.00
2019-06-10T09:29:08.487Z,3760.00
2019-06-10T09:30:08.334Z,3332.00
2019-06-10T09:31:08.229Z,3368.00
2019-06-10T09:32:08.154Z,3184.00
2019-06-10T09:33:08.072Z,3436.00
2019-06-10T09:34:08.003Z,3612.00
2019-06-10T09:35:07.906Z,4360.00
2019-06-10T09:36:07.827Z,4148.00
2019-06-10T09:37:07.772Z,3100.00
2019-06-10T09:38:07.665Z,3408.00
2019-06-10T09:39:07.574Z,3952.00
2019-06-10T09:40:07.495Z,3368.00
2019-06-10T09:41:07.417Z,3080.00
2019-06-10T09:42:07.429Z,3664.00
2019-06-10T09:43:07.261Z,3780.00
2019-06-10T09:44:07.173Z,3272.00
2019-06-10T09:45:07.086Z,3360.00
2019-06-10T09:46:07.016Z,4124.00
2019-06-10T09:47:06.922Z,5004.00
2019-06-10T09:48:06.845Z,4132.00
2019-06-10T09:49:06.772Z,4720.00
2019-06-10T09:50:06.679Z,5068.00
2019-06-10T09:51:06.603Z,4696.00
2019-06-10T09:52:06.514Z,4596.00
2019-06-10T09:53:06.438Z,5068.00
2019-06-10T09:54:06.978Z,5296.00
2019-06-10T09:55:06.286Z,5008.00
2019-06-10T09:56:06.194Z,4432.00
2019-06-10T09:57:06.104Z,4408.00
2019-06-10T09:58:06.028Z,4668.00
2019-06-10T09:59:05.946Z,4796.00
2019-06-10T10:00:05.866Z,4716.00
2019-06-10T10:01:05.781Z,4700.00
2019-06-10T10:02:07.253Z,3708.00
2019-06-10T10:03:05.614Z,3776.00
2019-06-10T10:04:05.554Z,4252.00
2019-06-10T10:05:05.458Z,3860.00
2019-06-10T10:06:15.733Z,3532.00
2019-06-10T10:07:05.306Z,3676.00
2019-06-10T10:08:05.412Z,3360.00
2019-06-10T10:09:05.135Z,3136.00
2019-06-10T10:10:05.525Z,3280.00
2019-06-10T10:11:04.969Z,5188.00
2019-06-10T10:12:04.892Z,4504.00
2019-06-10T10:13:04.817Z,5216.00
2019-06-10T10:14:08.604Z,3248.00
2019-06-10T10:15:22.604Z,3436.00
2019-06-10T10:16:04.565Z,3108.00
2019-06-10T10:17:04.934Z,2980.00
2019-06-10T10:18:04.404Z,2844.00
2019-06-10T10:19:05.320Z,2668.00
2019-06-10T10:20:04.233Z,2580.00
2019-06-10T10:21:04.173Z,2768.00
2019-06-10T10:22:04.075Z,3352.00
2019-06-10T10:23:04.004Z,3792.00
2019-06-10T10:24:08.148Z,2940.00
2019-06-10T10:25:03.826Z,2708.00
2019-06-10T10:26:03.747Z,2632.00
2019-06-10T10:27:08.256Z,3752.00
2019-06-10T10:28:03.582Z,4660.00
2019-06-10T10:29:03.551Z,5180.00
2019-06-10T10:30:04.022Z,4480.00
2019-06-10T10:31:04.577Z,4160.00
2019-06-10T10:32:03.767Z,3704.00
2019-06-10T10:33:03.856Z,3868.00
2019-06-10T10:34:03.096Z,4520.00
2019-06-10T10:35:04.000Z,3628.00
2019-06-10T10:36:03.125Z,5008.00
2019-06-10T10:37:02.999Z,5256.00
2019-06-10T10:38:03.851Z,5120.00
2019-06-10T10:39:02.703Z,5092.00
2019-06-10T10:40:03.260Z,4808.00
2019-06-10T10:41:04.485Z,5020.00
2019-06-10T10:42:03.848Z,5012.00
2019-06-10T10:43:22.443Z,5268.00
2019-06-10T10:44:03.077Z,5052.00
2019-06-10T10:45:02.801Z,4756.00
2019-06-10T10:46:05.586Z,5004.00
2019-06-10T10:47:03.626Z,4268.00
2019-06-10T10:48:02.530Z,4064.00
2019-06-10T10:49:02.727Z,3328.00
2019-06-10T10:50:02.835Z,3172.00
2019-06-10T10:51:03.509Z,3436.00
2019-06-10T10:52:02.685Z,3320.00
2019-06-10T10:53:01.583Z,5016.00
2019-06-10T10:54:21.204Z,5428.00
2019-06-10T10:55:06.436Z,5140.00
2019-06-10T10:56:02.304Z,3160.00
2019-06-10T10:57:02.638Z,4500.00
2019-06-10T10:58:03.196Z,3164.00
2019-06-10T10:59:02.163Z,3408.00
2019-06-10T11:00:03.221Z,5360.00
2019-06-10T11:01:04.234Z,5412.00
2019-06-10T11:02:02.395Z,5276.00
2019-06-10T11:03:02.904Z,5268.00
2019-06-10T11:04:03.670Z,4856.00
2019-06-10T11:05:01.088Z,5440.00
2019-06-10T11:06:01.221Z,5536.00
2019-06-10T11:07:01.167Z,5564.00
2019-06-10T11:08:00.333Z,5524.00
2019-06-10T11:09:00.281Z,5312.00
2019-06-10T11:10:00.174Z,5396.00
2019-06-10T11:11:03.569Z,5324.00
2019-06-10T11:12:00.017Z,5316.00
2019-06-10T11:13:02.321Z,5300.00
2019-06-10T11:13:59.866Z,5264.00
2019-06-10T11:15:02.141Z,4784.00
2019-06-10T11:15:59.686Z,5272.00
2019-06-10T11:16:59.605Z,5264.00
2019-06-10T11:17:59.519Z,5364.00
2019-06-10T11:18:59.453Z,5556.00
2019-06-10T11:19:59.367Z,5508.00
2019-06-10T11:21:01.602Z,5548.00
2019-06-10T11:21:59.200Z,5592.00
2019-06-10T11:22:59.119Z,5444.00
2019-06-10T11:24:02.189Z,5500.00
2019-06-10T11:24:58.968Z,5636.00
2019-06-10T11:25:59.055Z,5560.00
2019-06-10T11:26:58.795Z,5508.00
2019-06-10T11:27:58.725Z,3588.00
2019-06-10T11:28:58.644Z,3160.00
2019-06-10T11:29:59.186Z,3340.00
2019-06-10T11:30:58.759Z,5568.00
2019-06-10T11:31:58.923Z,3252.00
2019-06-10T11:34:29.352Z,3308.00
2019-06-10T11:35:21.727Z,3476.00
2019-06-10T11:36:24.450Z,3736.00
2019-06-10T11:37:23.114Z,5556.00
2019-06-10T11:38:27.027Z,5632.00
2019-06-10T11:39:22.424Z,5712.00
2019-06-10T11:40:19.048Z,5688.00
2019-06-10T11:41:17.426Z,4252.00
2019-06-10T11:42:23.778Z,3480.00
2019-06-10T11:43:15.894Z,5344.00
2019-06-10T11:44:26.651Z,4892.00
2019-06-10T11:45:11.625Z,4644.00
2019-06-10T11:46:24.930Z,5500.00
2019-06-10T11:47:22.982Z,5300.00
2019-06-10T11:48:26.474Z,3344.00
2019-06-10T11:49:23.750Z,3196.00
2019-06-10T11:50:23.312Z,5180.00
2019-06-10T11:51:23.253Z,5596.00
2019-06-10T11:52:23.736Z,5720.00
2019-06-10T11:53:28.716Z,3888.00
2019-06-10T11:54:23.232Z,4500.00
2019-06-10T11:55:19.521Z,5740.00
2019-06-10T11:56:25.203Z,3492.00
2019-06-10T11:57:28.277Z,4076.00
2019-06-10T11:58:25.289Z,3684.00
2019-06-10T11:59:13.509Z,5536.00
2019-06-10T12:00:32.401Z,5620.00
2019-06-10T12:01:26.358Z,4988.00
2019-06-10T12:02:22.891Z,3860.00
2019-06-10T12:03:17.463Z,5780.00
2019-06-10T12:04:14.390Z,3472.00
2019-06-10T12:05:20.536Z,3548.00
2019-06-10T12:06:26.394Z,3684.00
2019-06-10T12:07:22.229Z,3756.00
2019-06-10T12:08:27.755Z,3776.00
2019-06-10T12:09:18.834Z,3772.00
2019-06-10T12:10:23.466Z,3780.00
2019-06-10T12:11:17.109Z,3904.00
2019-06-10T12:12:26.432Z,6200.00
2019-06-10T12:13:13.386Z,3768.00
2019-06-10T12:14:23.315Z,3668.00
2019-06-10T12:15:17.232Z,3660.00
2019-06-10T12:17:05.237Z,3848.00
2019-06-10T12:17:29.756Z,3904.00
2019-06-10T12:18:16.131Z,4280.00
2019-06-10T12:19:15.011Z,4044.00
2019-06-10T12:20:16.450Z,4052.00
2019-06-10T12:21:23.485Z,3888.00
2019-06-10T12:22:24.757Z,3948.00
2019-06-10T12:23:22.088Z,3688.00
2019-06-10T12:24:09.511Z,3604.00
2019-06-10T12:25:25.084Z,3640.00
2019-06-10T12:26:09.115Z,3472.00
2019-06-10T12:27:22.231Z,3604.00